Time;durP1;ratioP1;P1;durP2;ratioP2;P2;SDS_P1;SDS_P2;PMS_P1;PMS_P2;Temp;Humidity;BMP_temperature;BMP_pressure;BME280_temperature;BME280_humidity;BME280_pressure;Samples;Min_cycle;Max_cycle;Signal;HPM_P1;HPM_P2
2022/12/04 00:01:14;;;;;;;25.73;13.57;;;4.40;1.00;;;;;;5050367;28;20470;-68
2022/12/04 00:03:40;;;;;;;24.63;13.93;;;4.40;1.00;;;;;;5051827;28;20412;-69
2022/12/04 00:06:17;;;;;;;22.33;12.53;;;4.40;1.00;;;;;;5049651;28;20509;-69
2022/12/04 00:08:45;;;;;;;23.07;13.17;;;4.40;1.00;;;;;;5050400;28;20547;-68
2022/12/04 00:11:14;;;;;;;21.87;12.57;;;4.40;1.00;;;;;;5050003;28;20466;-69
2022/12/04 00:13:39;;;;;;;26.93;13.57;;;4.40;1.00;;;;;;5051279;28;20419;-67
2022/12/04 00:16:07;;;;;;;25.17;13.50;;;4.40;1.00;;;;;;5041731;28;20521;-69
2022/12/04 00:18:33;;;;;;;22.10;13.70;;;4.30;1.00;;;;;;5051397;28;20177;-69
2022/12/04 00:21:01;;;;;;;17.80;10.93;;;4.30;1.00;;;;;;5053886;28;20466;-67
2022/12/04 00:23:27;;;;;;;20.43;11.67;;;4.20;1.00;;;;;;5047900;28;20992;-71
2022/12/04 00:25:59;;;;;;;20.00;12.03;;;4.20;1.00;;;;;;5046387;28;20519;-68
2022/12/04 00:28:24;;;;;;;21.40;12.10;;;4.30;1.00;;;;;;5046677;28;20527;-71
2022/12/04 00:30:50;;;;;;;18.50;11.43;;;4.20;1.00;;;;;;5033480;28;20455;-69
2022/12/04 00:33:15;;;;;;;20.47;12.20;;;4.20;1.00;;;;;;5050758;28;20176;-69
2022/12/04 00:35:41;;;;;;;21.30;12.10;;;4.20;1.00;;;;;;5049133;28;20177;-70
2022/12/04 00:38:06;;;;;;;18.40;11.30;;;4.20;1.00;;;;;;5043981;28;20261;-68
2022/12/04 00:40:32;;;;;;;19.50;12.07;;;4.20;1.00;;;;;;5054580;28;20227;-73
2022/12/04 00:42:58;;;;;;;20.43;11.40;;;4.20;1.00;;;;;;5050265;28;20177;-70
2022/12/04 00:45:23;;;;;;;18.03;11.47;;;4.20;1.00;;;;;;5064309;28;20176;-69
2022/12/04 00:47:49;;;;;;;20.23;11.33;;;4.10;1.00;;;;;;5052558;28;20188;-70
2022/12/04 00:50:14;;;;;;;21.90;12.50;;;4.10;1.00;;;;;;5052285;28;20493;-70
2022/12/04 00:52:40;;;;;;;21.70;11.77;;;4.10;1.00;;;;;;5050424;28;20185;-72
2022/12/04 00:55:06;;;;;;;21.20;12.67;;;4.20;1.00;;;;;;5048969;28;20185;-70
2022/12/04 00:57:31;;;;;;;18.80;12.10;;;4.30;1.00;;;;;;5049336;28;20673;-69
2022/12/04 00:59:57;;;;;;;21.10;11.97;;;4.30;1.00;;;;;;5051618;28;20443;-69
2022/12/04 01:02:22;;;;;;;20.00;12.20;;;4.30;1.00;;;;;;5048917;28;20170;-69
2022/12/04 01:04:48;;;;;;;21.90;12.00;;;4.30;1.00;;;;;;5050524;28;20170;-70
2022/12/04 01:07:13;;;;;;;21.77;12.40;;;4.20;1.00;;;;;;5048071;28;20172;-69
2022/12/04 01:09:39;;;;;;;24.97;13.00;;;4.20;1.00;;;;;;5050582;28;20172;-69
2022/12/04 01:12:05;;;;;;;21.53;11.40;;;;;;;;;;5055034;28;20227;-69
2022/12/04 01:14:30;;;;;;;22.83;12.50;;;4.20;1.00;;;;;;5050420;28;20177;-69
2022/12/04 01:16:56;;;;;;;20.37;11.70;;;4.10;1.00;;;;;;5048269;28;20454;-69
2022/12/04 01:19:21;;;;;;;22.57;13.40;;;4.20;1.00;;;;;;5050455;28;20184;-69
2022/12/04 01:21:47;;;;;;;23.73;13.17;;;4.20;1.00;;;;;;5054014;28;20205;-69
2022/12/04 01:24:12;;;;;;;21.57;13.10;;;4.30;1.00;;;;;;5048966;28;20548;-71
2022/12/04 01:26:38;;;;;;;21.47;12.87;;;4.20;1.00;;;;;;5047866;28;20683;-71
2022/12/04 01:29:03;;;;;;;20.07;12.50;;;4.20;1.00;;;;;;5041998;28;20628;-69
2022/12/04 01:31:29;;;;;;;20.10;12.57;;;4.20;1.00;;;;;;5100426;22;20231;-71
2022/12/04 01:33:55;;;;;;;21.47;12.63;;;4.20;1.00;;;;;;5077867;28;20180;-71
2022/12/04 01:36:24;;;;;;;22.13;12.63;;;4.20;1.00;;;;;;5075008;28;20195;-70
2022/12/04 01:38:53;;;;;;;21.40;12.03;;;4.20;1.00;;;;;;5084171;28;20206;-71
2022/12/04 01:41:23;;;;;;;21.07;13.07;;;4.30;1.00;;;;;;5088669;28;20474;-70
2022/12/04 01:44:15;;;;;;;23.00;12.60;;;4.30;1.00;;;;;;5085207;28;20437;-71
2022/12/04 01:46:43;;;;;;;22.03;13.03;;;4.30;1.00;;;;;;5085013;28;20417;-70
2022/12/04 01:49:14;;;;;;;20.97;12.50;;;4.30;1.00;;;;;;5063891;28;21106;-70
2022/12/04 01:51:44;;;;;;;21.70;12.93;;;4.40;1.00;;;;;;5087809;28;20536;-70
2022/12/04 01:54:17;;;;;;;21.50;13.17;;;4.40;1.00;;;;;;5088088;28;20430;-70
2022/12/04 01:56:52;;;;;;;21.20;12.70;;;4.30;1.00;;;;;;5087806;28;20442;-70
2022/12/04 01:59:25;;;;;;;21.70;12.07;;;4.30;1.00;;;;;;5065580;28;20406;-71
2022/12/04 02:02:11;;;;;;;22.57;12.47;;;4.40;1.00;;;;;;5086294;28;20477;-70
2022/12/04 02:04:38;;;;;;;23.63;13.47;;;4.30;1.00;;;;;;5063295;28;20447;-71
2022/12/04 02:07:04;;;;;;;22.60;12.80;;;4.30;1.00;;;;;;5069458;28;20520;-71
2022/12/04 02:09:31;;;;;;;20.80;11.50;;;4.30;1.00;;;;;;5089264;28;20497;-71
2022/12/04 02:12:31;;;;;;;20.80;13.03;;;4.30;1.00;;;;;;5093846;28;20192;-71
2022/12/04 02:15:10;;;;;;;20.87;12.40;;;4.30;1.00;;;;;;5088151;28;20437;-70
2022/12/04 02:17:46;;;;;;;23.00;12.87;;;4.40;1.00;;;;;;5089021;28;20413;-70
2022/12/04 02:20:15;;;;;;;20.87;12.73;;;4.40;1.00;;;;;;5068020;28;20548;-70
2022/12/04 02:23:13;;;;;;;21.63;12.37;;;4.40;1.00;;;;;;5081051;28;20425;-70
2022/12/04 02:26:03;;;;;;;20.07;11.00;;;4.50;1.00;;;;;;5076043;28;20425;-70
2022/12/04 02:28:54;;;;;;;20.07;11.77;;;4.40;1.00;;;;;;5075607;28;20839;-71
2022/12/04 02:31:47;;;;;;;17.77;10.87;;;4.40;1.00;;;;;;5083942;28;20841;-71
2022/12/04 02:34:20;;;;;;;19.80;11.70;;;4.40;1.00;;;;;;5082310;28;20969;-71
2022/12/04 02:37:01;;;;;;;16.17;11.00;;;4.40;1.00;;;;;;5085991;28;20433;-71
2022/12/04 02:39:41;;;;;;;21.20;11.77;;;4.50;1.00;;;;;;5081921;28;20418;-71
2022/12/04 02:42:17;;;;;;;21.37;11.77;;;4.50;1.00;;;;;;5065294;28;20461;-70
2022/12/04 02:44:56;;;;;;;20.00;11.60;;;4.60;1.00;;;;;;5088474;28;20501;-70
2022/12/04 02:47:24;;;;;;;19.60;11.13;;;4.60;1.00;;;;;;5055745;28;20446;-70
2022/12/04 02:49:55;;;;;;;17.67;10.97;;;4.60;1.00;;;;;;5084074;28;20424;-70
2022/12/04 02:52:28;;;;;;;19.77;11.07;;;4.60;1.00;;;;;;5088332;28;20450;-70
2022/12/04 02:55:00;;;;;;;20.47;11.47;;;4.70;1.00;;;;;;5066258;28;20434;-68
2022/12/04 02:57:30;;;;;;;19.10;11.53;;;4.70;1.00;;;;;;5074936;28;20410;-70
2022/12/04 02:59:58;;;;;;;19.03;10.60;;;4.70;1.00;;;;;;5070269;28;20963;-70
2022/12/04 03:02:55;;;;;;;18.33;10.53;;;4.70;1.00;;;;;;5087475;28;20425;-70
2022/12/04 03:05:26;;;;;;;21.50;11.53;;;4.80;1.00;;;;;;5073709;28;20743;-70
2022/12/04 03:07:56;;;;;;;20.77;11.97;;;4.70;1.00;;;;;;5081341;28;20532;-71
2022/12/04 03:10:28;;;;;;;20.20;11.63;;;4.60;1.00;;;;;;5088749;28;21242;-71
2022/12/04 03:13:01;;;;;;;18.93;10.77;;;4.60;1.00;;;;;;5068213;28;20758;-71
2022/12/04 03:15:36;;;;;;;20.73;11.27;;;4.60;1.00;;;;;;5072995;28;20418;-71
2022/12/04 03:18:27;;;;;;;21.00;11.50;;;4.70;1.00;;;;;;5083983;28;20925;-70
2022/12/04 03:21:01;;;;;;;15.87;9.57;;;4.80;1.00;;;;;;5077978;28;20465;-67
2022/12/04 03:23:36;;;;;;;17.40;10.30;;;4.80;1.00;;;;;;5069628;28;20433;-70
2022/12/04 03:26:24;;;;;;;17.60;10.93;;;4.80;1.00;;;;;;5079733;28;20470;-71
2022/12/04 03:29:26;;;;;;;18.80;10.63;;;4.80;1.00;;;;;;5088798;28;20437;-70
2022/12/04 03:32:06;;;;;;;17.73;10.67;;;4.80;1.00;;;;;;5045880;28;20461;-71
2022/12/04 03:35:00;;;;;;;19.57;10.73;;;4.80;1.00;;;;;;5083274;28;20445;-71
2022/12/04 03:37:54;;;;;;;18.33;10.00;;;4.80;1.00;;;;;;5082410;28;20908;-70
2022/12/04 03:40:40;;;;;;;18.93;10.70;;;4.80;1.00;;;;;;5086019;28;20453;-70
2022/12/04 03:43:24;;;;;;;19.60;11.30;;;4.80;1.00;;;;;;5069629;28;20471;-71
2022/12/04 03:46:13;;;;;;;18.73;11.60;;;4.80;1.00;;;;;;5076277;28;20406;-70
2022/12/04 03:49:03;;;;;;;16.17;10.17;;;4.70;1.00;;;;;;5090414;28;20955;-71
2022/12/04 03:51:44;;;;;;;18.80;11.33;;;4.80;1.00;;;;;;5086134;28;20441;-71
2022/12/04 03:54:27;;;;;;;19.87;11.00;;;4.80;1.00;;;;;;5071294;28;20430;-69
2022/12/04 03:57:03;;;;;;;16.90;9.97;;;4.80;1.00;;;;;;5073012;28;20421;-70
2022/12/04 03:59:39;;;;;;;19.10;10.37;;;4.80;1.00;;;;;;5074321;28;20959;-71
2022/12/04 04:02:09;;;;;;;17.00;10.77;;;4.80;1.00;;;;;;5074712;28;20776;-70
2022/12/04 04:04:38;;;;;;;19.43;10.73;;;4.80;1.00;;;;;;5090237;28;20418;-71
2022/12/04 04:07:12;;;;;;;18.40;10.40;;;4.90;1.00;;;;;;5084231;28;20493;-71
2022/12/04 04:09:41;;;;;;;16.93;10.30;;;4.90;1.00;;;;;;5095194;28;20824;-71
2022/12/04 04:12:12;;;;;;;16.13;9.47;;;4.80;1.00;;;;;;5077619;28;20504;-71
2022/12/04 04:25:59;;;;;;;19.50;10.20;;;4.90;1.00;;;;;;5079485;28;20425;-71
2022/12/04 04:28:26;;;;;;;16.80;9.53;;;4.90;1.00;;;;;;5082111;28;20421;-71
2022/12/04 04:30:55;;;;;;;15.60;9.80;;;4.90;1.00;;;;;;5088042;28;20780;-67
2022/12/04 04:33:21;;;;;;;19.03;10.00;;;4.90;1.00;;;;;;5084015;28;20445;-71
2022/12/04 04:36:05;;;;;;;17.40;9.97;;;4.90;1.00;;;;;;5070549;28;20410;-70
2022/12/04 04:38:40;;;;;;;19.13;10.20;;;4.90;1.00;;;;;;5064132;28;20182;-70
2022/12/04 04:41:16;;;;;;;15.70;9.40;;;5.00;1.00;;;;;;5082284;28;20833;-71
2022/12/04 04:44:18;;;;;;;16.67;9.90;;;5.00;1.00;;;;;;5090642;28;20893;-70
2022/12/04 04:46:51;;;;;;;16.07;9.50;;;5.00;1.00;;;;;;5081114;28;20855;-70
2022/12/04 04:49:18;;;;;;;18.63;9.80;;;5.00;1.00;;;;;;5088220;28;20417;-71
2022/12/04 04:51:45;;;;;;;17.73;10.03;;;5.00;1.00;;;;;;5061531;28;20423;-71
2022/12/04 04:54:13;;;;;;;18.97;10.43;;;5.00;1.00;;;;;;5081532;28;20429;-71
2022/12/04 04:56:41;;;;;;;15.87;9.30;;;5.00;1.00;;;;;;5076120;28;20910;-70
2022/12/04 04:59:07;;;;;;;16.83;9.63;;;5.00;1.00;;;;;;5088216;28;20737;-70
2022/12/04 05:01:32;;;;;;;17.60;10.70;;;5.00;1.00;;;;;;5075906;28;20457;-70
2022/12/04 05:03:58;;;;;;;16.67;9.70;;;5.00;1.00;;;;;;5071308;28;20262;-71
2022/12/04 05:06:23;;;;;;;16.00;9.30;;;5.00;1.00;;;;;;5089299;28;20175;-71
2022/12/04 05:08:49;;;;;;;14.80;8.90;;;5.00;1.00;;;;;;5087841;28;20289;-71
2022/12/04 05:11:15;;;;;;;16.50;9.67;;;5.00;1.00;;;;;;5072693;28;20191;-71
2022/12/04 05:13:41;;;;;;;17.43;10.20;;;5.00;1.00;;;;;;5088340;28;20364;-71
2022/12/04 05:16:10;;;;;;;19.10;10.20;;;5.10;1.00;;;;;;5082835;28;20532;-71
2022/12/04 05:18:36;;;;;;;16.07;9.70;;;5.10;1.00;;;;;;5086285;28;20183;-71
2022/12/04 05:21:15;;;;;;;16.30;9.67;;;5.10;1.00;;;;;;5089302;28;20461;-69
2022/12/04 05:23:40;;;;;;;15.17;9.60;;;5.10;1.00;;;;;;5088055;28;20176;-71
2022/12/04 05:26:06;;;;;;;18.30;9.77;;;5.00;1.00;;;;;;5071546;28;20765;-71
2022/12/04 05:28:31;;;;;;;19.77;9.53;;;4.90;1.00;;;;;;5071649;28;20164;-70
2022/12/04 05:30:58;;;;;;;17.97;9.77;;;4.80;1.00;;;;;;5084253;28;20208;-71
2022/12/04 05:33:24;;;;;;;19.73;10.73;;;4.80;1.00;;;;;;5076177;28;20187;-70
2022/12/04 05:36:04;;;;;;;23.00;10.13;;;4.80;1.00;;;;;;5087087;28;20415;-70
2022/12/04 05:38:30;;;;;;;12.43;8.50;;;4.80;1.00;;;;;;5078440;28;20328;-68
2022/12/04 05:41:00;;;;;;;13.40;8.17;;;4.80;1.00;;;;;;5083470;28;20453;-69
2022/12/04 05:43:26;;;;;;;20.73;9.57;;;4.80;1.00;;;;;;5070574;28;20437;-71
2022/12/04 05:45:52;;;;;;;16.57;9.17;;;4.80;1.00;;;;;;5070954;28;20703;-70
2022/12/04 05:48:18;;;;;;;15.03;9.40;;;4.90;1.00;;;;;;5075645;28;20168;-70
2022/12/04 05:50:43;;;;;;;15.93;9.00;;;4.90;1.00;;;;;;5092162;28;20588;-70
2022/12/04 05:53:09;;;;;;;17.33;9.03;;;4.90;1.00;;;;;;5069780;28;20176;-70
2022/12/04 05:55:35;;;;;;;16.70;8.67;;;4.90;1.00;;;;;;5088675;28;20164;-70
2022/12/04 05:58:01;;;;;;;15.53;8.80;;;4.80;1.00;;;;;;5054051;28;20288;-70
2022/12/04 06:00:27;;;;;;;16.13;9.10;;;4.90;1.00;;;;;;5090158;28;20219;-70
2022/12/04 06:02:52;;;;;;;14.60;8.73;;;4.90;1.00;;;;;;5080140;28;20802;-70
2022/12/04 06:05:18;;;;;;;15.33;9.00;;;4.90;1.00;;;;;;5089354;28;20168;-70
2022/12/04 06:07:43;;;;;;;14.13;8.40;;;4.80;1.00;;;;;;5071734;28;20591;-70
2022/12/04 06:10:09;;;;;;;13.67;8.60;;;4.90;1.00;;;;;;5085469;28;20199;-68
2022/12/04 06:12:34;;;;;;;15.17;8.90;;;4.90;1.00;;;;;;5070200;28;20179;-70
2022/12/04 06:15:00;;;;;;;15.13;8.43;;;4.90;1.00;;;;;;5087977;28;20287;-71
2022/12/04 06:17:26;;;;;;;14.80;8.50;;;5.00;1.00;;;;;;5088910;28;20168;-71
2022/12/04 06:19:52;;;;;;;15.60;8.07;;;4.90;1.00;;;;;;5072530;28;20163;-71
2022/12/04 06:22:18;;;;;;;16.23;9.50;;;4.90;1.00;;;;;;5067004;28;20523;-70
2022/12/04 06:24:44;;;;;;;19.97;9.47;;;4.90;1.00;;;;;;5060659;28;20181;-70
2022/12/04 06:27:10;;;;;;;14.40;9.00;;;4.80;1.00;;;;;;5064769;28;20440;-70
2022/12/04 06:29:35;;;;;;;19.90;10.00;;;4.80;1.00;;;;;;5064779;28;20225;-70
2022/12/04 06:32:01;;;;;;;13.47;8.60;;;4.90;1.00;;;;;;5088649;28;20264;-71
2022/12/04 06:34:26;;;;;;;15.37;8.80;;;4.90;1.00;;;;;;5097665;28;20175;-70
2022/12/04 06:36:52;;;;;;;16.47;8.67;;;4.90;1.00;;;;;;5088570;28;20179;-70
2022/12/04 06:39:17;;;;;;;16.63;9.20;;;4.90;1.00;;;;;;5074699;28;20187;-71
2022/12/04 06:41:43;;;;;;;16.93;9.40;;;4.90;1.00;;;;;;5088440;28;20227;-71
2022/12/04 06:44:08;;;;;;;16.63;9.13;;;5.00;1.00;;;;;;5058412;28;20173;-71
2022/12/04 06:46:34;;;;;;;19.07;9.40;;;5.00;1.00;;;;;;5077345;28;20225;-71
2022/12/04 06:49:01;;;;;;;16.07;8.60;;;5.00;1.00;;;;;;5086934;28;20168;-70
2022/12/04 06:51:32;;;;;;;15.00;8.97;;;5.10;1.00;;;;;;5092922;28;20222;-68
2022/12/04 06:53:58;;;;;;;17.03;9.50;;;5.10;1.00;;;;;;5087797;28;20565;-71
2022/12/04 06:56:26;;;;;;;16.20;9.13;;;5.10;1.00;;;;;;5081691;28;20463;-71
2022/12/04 06:58:55;;;;;;;16.03;9.47;;;5.10;1.00;;;;;;5060242;28;20444;-70
2022/12/04 07:01:22;;;;;;;14.00;8.20;;;5.10;1.00;;;;;;5083425;28;20460;-70
2022/12/04 07:03:49;;;;;;;17.90;9.23;;;5.10;1.00;;;;;;5087231;28;20428;-72
2022/12/04 07:06:24;;;;;;;12.90;8.33;;;5.00;1.00;;;;;;5070340;28;20430;-70
2022/12/04 07:08:56;;;;;;;15.47;8.73;;;5.10;1.00;;;;;;5086489;28;20486;-71
2022/12/04 07:11:21;;;;;;;15.70;9.23;;;4.90;1.00;;;;;;5071884;28;20452;-71
2022/12/04 07:13:48;;;;;;;13.70;8.73;;;5.10;1.00;;;;;;5081709;28;20414;-71
2022/12/04 07:16:16;;;;;;;16.33;8.77;;;5.20;1.00;;;;;;5071158;28;20274;-70
2022/12/04 07:18:41;;;;;;;14.67;8.70;;;5.10;1.00;;;;;;5086551;28;20476;-70
2022/12/04 07:21:10;;;;;;;14.70;9.00;;;5.20;1.00;;;;;;5090733;28;20493;-70
2022/12/04 07:23:35;;;;;;;17.07;9.30;;;5.20;1.00;;;;;;5089547;28;20255;-71
2022/12/04 07:26:10;;;;;;;16.17;8.50;;;5.20;1.00;;;;;;5088242;28;20489;-70
2022/12/04 07:28:36;;;;;;;13.40;8.93;;;5.10;1.00;;;;;;5078655;28;20702;-71
2022/12/04 07:31:07;;;;;;;15.07;8.77;;;5.10;1.00;;;;;;5084664;22;20540;-71
2022/12/04 07:33:33;;;;;;;14.80;8.30;;;5.10;1.00;;;;;;5009362;28;20446;-69
2022/12/04 07:36:00;;;;;;;16.53;9.07;;;5.00;1.00;;;;;;5000026;28;20422;-69
2022/12/04 07:38:27;;;;;;;16.10;8.50;;;5.10;1.00;;;;;;5013860;28;20979;-71
2022/12/04 07:40:57;;;;;;;16.97;9.07;;;5.10;1.00;;;;;;5091167;27;20455;-69
2022/12/04 07:43:24;;;;;;;17.50;8.70;;;5.10;1.00;;;;;;5102915;28;20519;-70
2022/12/04 07:45:49;;;;;;;17.60;9.40;;;5.20;1.00;;;;;;5108871;27;20438;-69
2022/12/04 07:48:15;;;;;;;19.07;9.40;;;5.30;1.00;;;;;;5088704;27;20412;-69
2022/12/04 07:50:40;;;;;;;13.90;8.13;;;5.30;1.00;;;;;;5107167;27;20245;-72
2022/12/04 07:53:06;;;;;;;17.77;9.20;;;5.30;1.00;;;;;;5121274;27;20842;-69
2022/12/04 07:55:31;;;;;;;14.60;9.07;;;5.40;1.00;;;;;;5108001;27;20169;-69
2022/12/04 07:57:57;;;;;;;16.10;9.70;;;5.40;1.00;;;;;;5107564;27;20218;-70
2022/12/04 08:00:22;;;;;;;14.50;8.47;;;5.50;1.00;;;;;;5107719;28;20574;-70
2022/12/04 08:02:48;;;;;;;15.93;8.73;;;5.40;1.00;;;;;;5105285;27;20245;-71
2022/12/04 15:21:51;;;;;;;33.70;15.40;;;4.10;32.70;;;;;;5054774;28;20615;-70
2022/12/04 15:24:19;;;;;;;35.97;16.47;;;4.10;34.70;;;;;;5036295;28;20455;-71
2022/12/04 15:26:46;;;;;;;36.60;17.23;;;4.20;36.20;;;;;;5038171;28;20197;-70
2022/12/04 15:29:17;;;;;;;37.53;18.27;;;4.40;34.50;;;;;;5040314;28;20427;-71
2022/12/04 15:31:52;;;;;;;29.90;16.27;;;5.10;34.80;;;;;;5039808;28;20455;-70
2022/12/04 15:34:20;;;;;;;43.53;16.23;;;5.10;35.10;;;;;;5036681;28;20470;-76
2022/12/04 15:36:50;;;;;;;31.17;15.40;;;5.10;34.90;;;;;;5045361;28;20419;-71
2022/12/04 15:39:21;;;;;;;29.27;16.63;;;5.10;35.00;;;;;;5044122;28;20518;-70
2022/12/04 15:41:48;;;;;;;39.43;16.90;;;5.20;32.90;;;;;;5038485;28;20455;-70
2022/12/04 15:44:27;;;;;;;40.87;17.60;;;5.20;34.90;;;;;;5042194;28;21057;-69
2022/12/04 15:46:55;;;;;;;33.07;16.50;;;5.20;35.00;;;;;;5043491;28;20414;-70
2022/12/04 15:49:29;;;;;;;32.87;15.23;;;5.20;31.90;;;;;;5038481;28;20948;-70
2022/12/04 15:52:25;;;;;;;32.90;16.30;;;5.30;24.70;;;;;;5039291;28;20530;-70
2022/12/04 15:54:58;;;;;;;31.60;15.70;;;5.30;25.50;;;;;;5045414;28;20495;-71
2022/12/04 15:57:36;;;;;;;35.20;15.67;;;5.30;23.80;;;;;;5046227;28;20403;-70
2022/12/04 16:00:06;;;;;;;30.40;16.47;;;5.30;26.20;;;;;;5042313;28;20806;-70
2022/12/04 16:02:35;;;;;;;37.00;17.50;;;5.30;21.80;;;;;;5045636;28;20434;-70
2022/12/04 16:05:35;;;;;;;31.37;16.13;;;5.30;26.30;;;;;;5026947;28;20408;-70
2022/12/04 16:08:23;;;;;;;34.40;16.00;;;5.30;29.60;;;;;;5031177;28;20475;-69
2022/12/04 16:10:57;;;;;;;34.30;17.47;;;5.30;30.30;;;;;;5025766;28;20401;-70
2022/12/04 16:13:32;;;;;;;35.00;17.57;;;5.30;24.40;;;;;;5045626;28;20509;-71
2022/12/04 16:15:58;;;;;;;34.80;17.40;;;5.30;27.50;;;;;;5026789;28;20404;-70
2022/12/04 16:18:25;;;;;;;34.30;17.80;;;5.30;35.00;;;;;;5026857;28;20404;-71
2022/12/04 16:20:50;;;;;;;38.37;18.40;;;5.30;33.00;;;;;;5025393;28;20456;-69
2022/12/04 16:23:16;;;;;;;38.83;17.93;;;5.30;33.00;;;;;;5038448;28;20438;-69
2022/12/04 16:25:41;;;;;;;38.67;18.50;;;5.30;30.10;;;;;;5060222;28;20168;-70
2022/12/04 16:28:07;;;;;;;33.07;17.13;;;5.20;34.90;;;;;;5041830;28;20280;-69
2022/12/04 16:30:34;;;;;;;32.27;16.03;;;5.10;32.80;;;;;;5046861;28;20193;-71
2022/12/04 16:33:00;;;;;;;38.27;16.97;;;5.10;32.80;;;;;;5032360;28;20208;-70
2022/12/04 16:35:25;;;;;;;38.10;16.47;;;5.00;35.00;;;;;;5047378;28;20507;-70
2022/12/04 16:37:51;;;;;;;35.93;16.73;;;4.90;32.80;;;;;;5032935;28;20514;-70
2022/12/04 16:40:17;;;;;;;37.10;17.40;;;5.10;35.10;;;;;;5047190;28;20209;-71
2022/12/04 16:42:42;;;;;;;36.23;17.30;;;5.20;32.90;;;;;;5027370;28;20189;-70
2022/12/04 16:45:23;;;;;;;31.57;16.80;;;5.20;35.30;;;;;;5032430;28;20170;-70
2022/12/04 16:47:48;;;;;;;34.37;16.90;;;5.20;35.20;;;;;;5032691;28;20177;-71
2022/12/04 16:50:14;;;;;;;35.77;16.37;;;5.00;32.90;;;;;;5031933;28;20404;-70
2022/12/04 16:52:39;;;;;;;30.37;14.87;;;5.10;33.10;;;;;;5032183;28;20253;-71
2022/12/04 16:55:29;;;;;;;31.43;15.27;;;5.10;35.20;;;;;;5030554;28;20166;-69
2022/12/04 16:57:55;;;;;;;34.07;16.60;;;5.10;35.10;;;;;;5028396;28;20178;-71
2022/12/04 17:00:20;;;;;;;36.33;16.40;;;4.90;32.80;;;;;;5033120;28;20456;-70
2022/12/04 17:02:46;;;;;;;36.47;15.83;;;5.00;32.90;;;;;;5033466;28;20189;-70
2022/12/04 17:05:27;;;;;;;35.47;16.00;;;5.00;39.90;;;;;;5031361;28;20201;-69
2022/12/04 17:07:53;;;;;;;36.13;16.30;;;5.00;40.40;;;;;;5032502;28;20421;-70
2022/12/04 17:10:19;;;;;;;37.43;17.73;;;5.00;42.50;;;;;;5026544;28;20474;-70
2022/12/04 17:12:45;;;;;;;32.30;17.10;;;5.00;38.00;;;;;;5031471;28;20186;-71
2022/12/04 17:15:11;;;;;;;34.40;16.97;;;5.00;41.90;;;;;;5030099;28;20417;-69
2022/12/04 17:17:38;;;;;;;33.33;16.00;;;5.00;42.10;;;;;;5031002;28;20188;-70
2022/12/04 17:20:11;;;;;;;37.07;18.07;;;5.00;44.10;;;;;;5031931;28;20460;-70
2022/12/04 17:22:37;;;;;;;41.90;18.50;;;5.00;33.30;;;;;;5031281;28;20421;-71
2022/12/04 17:25:04;;;;;;;37.37;18.47;;;5.00;35.80;;;;;;5027036;28;20428;-69
2022/12/04 17:27:29;;;;;;;39.87;17.40;;;5.00;41.30;;;;;;5030349;28;20166;-70
2022/12/04 17:29:55;;;;;;;47.10;21.47;;;5.00;39.90;;;;;;5031996;28;20424;-70
2022/12/04 17:32:21;;;;;;;52.33;22.87;;;5.00;37.80;;;;;;5033559;28;20684;-71
2022/12/04 17:34:46;;;;;;;50.97;20.50;;;7.70;42.30;;;;;;5032348;28;20200;-71
2022/12/04 17:37:12;;;;;;;53.93;20.97;;;5.00;40.50;;;;;;5030712;28;20411;-71
2022/12/04 17:39:38;;;;;;;49.00;20.77;;;5.00;42.90;;;;;;5026955;28;20439;-71
2022/12/04 17:42:03;;;;;;;48.13;21.80;;;5.00;35.20;;;;;;5030456;28;20269;-71
2022/12/04 17:44:29;;;;;;;45.30;18.00;;;5.00;40.10;;;;;;5030578;28;20537;-71
2022/12/04 17:46:54;;;;;;;62.77;24.57;;;5.00;39.50;;;;;;5031324;28;20189;-71
2022/12/04 17:49:20;;;;;;;64.83;24.90;;;5.00;40.40;;;;;;5031649;28;20649;-70
2022/12/04 17:51:45;;;;;;;49.03;20.57;;;5.00;32.70;;;;;;5042483;28;20201;-71
2022/12/04 17:54:11;;;;;;;41.97;19.87;;;5.00;35.70;;;;;;5027833;28;20174;-71
2022/12/04 17:56:37;;;;;;;77.37;27.93;;;5.00;39.60;;;;;;5028600;28;20230;-70
2022/12/04 17:59:03;;;;;;;60.83;22.87;;;5.10;39.90;;;;;;5028801;28;20174;-71
2022/12/04 18:01:29;;;;;;;55.90;23.13;;;5.10;39.20;;;;;;5031911;28;20535;-71
2022/12/04 18:03:58;;;;;;;57.40;22.43;;;5.10;42.10;;;;;;5029809;28;20465;-71
2022/12/04 18:06:32;;;;;;;62.07;23.87;;;5.10;39.30;;;;;;5028733;28;20405;-70
2022/12/04 18:08:58;;;;;;;30.83;16.60;;;5.10;40.70;;;;;;5028886;28;20486;-71
2022/12/04 18:11:26;;;;;;;67.13;25.43;;;5.00;36.20;;;;;;5029915;28;20408;-70
2022/12/04 18:13:57;;;;;;;63.73;24.73;;;5.00;39.80;;;;;;5030878;28;20182;-69
2022/12/04 18:16:23;;;;;;;60.73;22.67;;;4.90;41.30;;;;;;5031005;28;20919;-70
2022/12/04 18:18:52;;;;;;;55.87;22.23;;;5.10;42.10;;;;;;5031304;28;20412;-70
2022/12/04 18:21:18;;;;;;;40.50;17.73;;;5.00;32.80;;;;;;5027292;28;20491;-70
2022/12/04 18:23:44;;;;;;;51.43;23.17;;;4.90;32.80;;;;;;5030158;28;20484;-70
2022/12/04 18:26:21;;;;;;;44.70;23.80;;;5.00;35.90;;;;;;5030283;28;20174;-71
2022/12/04 18:28:47;;;;;;;43.87;21.70;;;5.00;45.40;;;;;;5045983;28;20417;-70
2022/12/04 18:31:13;;;;;;;32.87;17.87;;;;;;;;;;5047794;28;20439;-70
2022/12/04 18:33:41;;;;;;;30.57;17.30;;;5.00;40.80;;;;;;5030698;28;20213;-70
2022/12/04 18:36:11;;;;;;;31.53;16.60;;;5.00;39.80;;;;;;5024871;28;20432;-70
2022/12/04 18:38:38;;;;;;;32.73;17.13;;;;;;;;;;5029086;28;20420;-71
2022/12/04 18:41:06;;;;;;;46.00;19.87;;;5.00;37.70;;;;;;5027905;28;20773;-69
2022/12/04 18:43:36;;;;;;;37.60;17.47;;;5.00;41.30;;;;;;5030484;28;20923;-71
2022/12/04 18:46:05;;;;;;;38.73;19.00;;;5.00;41.70;;;;;;5030374;28;20707;-71
2022/12/04 18:48:31;;;;;;;33.37;16.47;;;5.00;41.90;;;;;;5028907;28;20858;-71
2022/12/04 18:50:56;;;;;;;32.30;15.40;;;5.00;40.60;;;;;;5027280;28;20425;-71
2022/12/04 18:53:24;;;;;;;29.53;16.13;;;4.90;42.00;;;;;;5025847;28;20445;-71
2022/12/04 18:55:50;;;;;;;34.50;16.30;;;4.90;43.30;;;;;;5028902;28;20200;-71
2022/12/04 18:58:16;;;;;;;32.70;15.80;;;4.90;45.10;;;;;;5025973;28;20428;-71
2022/12/04 19:00:42;;;;;;;32.67;14.57;;;4.80;45.10;;;;;;5032679;28;20550;-71
2022/12/04 19:03:08;;;;;;;33.30;17.50;;;4.90;44.50;;;;;;5029538;28;20229;-70
2022/12/04 19:05:34;;;;;;;31.00;16.10;;;4.90;48.20;;;;;;5028025;28;20205;-71
2022/12/04 19:08:00;;;;;;;29.93;15.00;;;4.90;46.20;;;;;;5030407;28;20441;-71
2022/12/04 19:10:26;;;;;;;31.13;15.73;;;4.80;50.00;;;;;;5028144;28;20532;-71
2022/12/04 19:12:52;;;;;;;33.70;15.87;;;4.90;48.50;;;;;;5023144;28;20534;-70
2022/12/04 19:15:19;;;;;;;31.90;16.30;;;4.90;48.80;;;;;;5026286;28;20527;-72
2022/12/04 19:17:44;;;;;;;41.30;16.20;;;4.90;51.60;;;;;;5010597;28;20704;-71
2022/12/04 19:20:10;;;;;;;51.20;20.20;;;4.90;52.00;;;;;;5020467;28;20555;-70
2022/12/04 19:22:37;;;;;;;55.23;24.17;;;4.90;43.60;;;;;;5029086;28;20197;-71
2022/12/04 19:25:05;;;;;;;48.87;21.70;;;4.80;50.20;;;;;;5029328;28;20413;-72
2022/12/04 19:27:31;;;;;;;42.60;19.67;;;4.80;48.90;;;;;;5023774;28;20428;-71
2022/12/04 19:29:56;;;;;;;58.97;23.80;;;4.80;51.80;;;;;;5022616;28;20437;-70
2022/12/04 19:32:22;;;;;;;42.87;20.27;;;4.90;52.60;;;;;;5022860;28;20892;-72
2022/12/04 19:34:48;;;;;;;40.87;20.03;;;4.90;48.70;;;;;;5039401;22;20257;-70
2022/12/04 19:37:14;;;;;;;47.83;19.50;;;4.90;51.00;;;;;;5008302;28;20174;-69
2022/12/04 19:39:40;;;;;;;36.93;18.87;;;4.80;50.90;;;;;;5006484;28;20951;-69
2022/12/04 19:42:06;;;;;;;40.97;18.43;;;4.80;51.50;;;;;;5010563;28;20425;-70
2022/12/04 19:44:32;;;;;;;36.83;17.93;;;4.90;51.80;;;;;;5009604;28;20420;-69
2022/12/04 19:46:57;;;;;;;42.37;18.23;;;4.90;56.60;;;;;;5008488;28;20928;-71
2022/12/04 19:49:23;;;;;;;34.53;18.10;;;4.80;49.40;;;;;;5009627;28;20174;-69
2022/12/04 19:51:49;;;;;;;38.27;21.13;;;4.80;52.30;;;;;;5007583;28;20776;-69
2022/12/04 19:54:15;;;;;;;29.80;16.17;;;4.80;52.60;;;;;;5008475;28;20222;-70
2022/12/04 19:56:41;;;;;;;36.07;19.00;;;4.90;56.50;;;;;;5004785;28;20248;-72
2022/12/04 19:59:07;;;;;;;33.87;16.10;;;4.80;56.00;;;;;;5009845;28;20201;-70
2022/12/04 20:01:34;;;;;;;33.67;15.80;;;4.80;55.10;;;;;;5011263;28;20627;-69
2022/12/04 20:04:03;;;;;;;28.93;15.40;;;4.80;55.20;;;;;;5002987;28;20612;-69
2022/12/04 20:06:29;;;;;;;31.90;16.73;;;4.90;60.20;;;;;;5009615;28;20405;-69
2022/12/04 20:08:58;;;;;;;36.90;17.37;;;4.90;56.20;;;;;;5011833;28;20423;-69
2022/12/04 20:11:26;;;;;;;28.50;15.60;;;4.90;54.80;;;;;;5010170;28;20515;-71
2022/12/04 20:13:54;;;;;;;31.23;16.37;;;4.80;55.50;;;;;;5010328;28;20583;-69
2022/12/04 20:16:21;;;;;;;35.03;16.80;;;4.80;56.50;;;;;;5011836;28;20913;-70
2022/12/04 20:18:47;;;;;;;31.57;15.63;;;4.80;53.00;;;;;;5012297;28;20440;-69
2022/12/04 20:21:13;;;;;;;34.30;17.23;;;4.80;58.80;;;;;;5009996;28;20796;-71
2022/12/04 20:23:40;;;;;;;33.83;16.50;;;4.80;61.50;;;;;;5008764;28;20209;-69
2022/12/04 20:26:07;;;;;;;39.50;16.00;;;4.80;62.60;;;;;;5009097;28;21010;-69